sensor_id;sensor_type;location;lat;lon;timestamp;pressure;altitude;pressure_sealevel;temperature;humidity
4528;BME280;62320;51.520;6.818;2023-04-26T00:01:09;101423.06;;;3.75;84.97
4528;BME280;62320;51.520;6.818;2023-04-26T00:11:11;101429.81;;;3.51;85.43
4528;BME280;62320;51.520;6.818;2023-04-26T00:21:12;101425.13;;;3.41;86.43
4528;BME280;62320;51.520;6.818;2023-04-26T00:31:14;101410.44;;;3.35;85.23
4528;BME280;62320;51.520;6.818;2023-04-26T00:41:16;101413.34;;;3.22;86.49
4528;BME280;62320;51.520;6.818;2023-04-26T00:51:17;101410.69;;;3.21;86.32
4528;BME280;62320;51.520;6.818;2023-04-26T01:01:19;101404.84;;;3.03;86.75
4528;BME280;62320;51.520;6.818;2023-04-26T01:11:21;101403.19;;;2.82;87.89
4528;BME280;62320;51.520;6.818;2023-04-26T01:21:23;101410.66;;;2.78;88.09
4528;BME280;62320;51.520;6.818;2023-04-26T01:31:25;101419.38;;;2.83;88.34
4528;BME280;62320;51.520;6.818;2023-04-26T01:41:26;101412.09;;;2.71;85.91
4528;BME280;62320;51.520;6.818;2023-04-26T01:51:28;101411.16;;;2.50;88.18
4528;BME280;62320;51.520;6.818;2023-04-26T02:01:29;101412.59;;;2.44;88.33
4528;BME280;62320;51.520;6.818;2023-04-26T02:11:31;101424.28;;;2.39;89.83
4528;BME280;62320;51.520;6.818;2023-04-26T02:21:49;101422.16;;;2.29;90.20
4528;BME280;62320;51.520;6.818;2023-04-26T02:31:50;101422.53;;;2.18;91.32
4528;BME280;62320;51.520;6.818;2023-04-26T02:41:52;101416.31;;;2.12;90.03
4528;BME280;62320;51.520;6.818;2023-04-26T02:51:53;101414.56;;;2.11;90.23
4528;BME280;62320;51.520;6.818;2023-04-26T03:01:55;101415.56;;;2.14;88.73
4528;BME280;62320;51.520;6.818;2023-04-26T03:11:57;101408.44;;;2.07;87.83
4528;BME280;62320;51.520;6.818;2023-04-26T03:21:58;101404.91;;;2.04;85.97
4528;BME280;62320;51.520;6.818;2023-04-26T03:32:00;101406.56;;;2.03;88.18
4528;BME280;62320;51.520;6.818;2023-04-26T03:42:01;101399.59;;;1.99;87.96
4528;BME280;62320;51.520;6.818;2023-04-26T03:52:04;101386.97;;;2.02;85.37
4528;BME280;62320;51.520;6.818;2023-04-26T04:02:05;101394.50;;;1.99;84.57
4528;BME280;62320;51.520;6.818;2023-04-26T04:12:07;101397.09;;;1.82;87.61
4528;BME280;62320;51.520;6.818;2023-04-26T04:22:08;101398.06;;;1.84;87.69
4528;BME280;62320;51.520;6.818;2023-04-26T04:32:10;101411.97;;;1.73;91.20
4528;BME280;62320;51.520;6.818;2023-04-26T04:42:13;101408.88;;;1.80;86.89
4528;BME280;62320;51.520;6.818;2023-04-26T04:52:15;101413.88;;;1.77;89.66
4528;BME280;62320;51.520;6.818;2023-04-26T05:02:19;101431.53;;;1.91;90.87
4528;BME280;62320;51.520;6.818;2023-04-26T05:12:20;101427.72;;;2.01;87.28
4528;BME280;62320;51.520;6.818;2023-04-26T05:22:22;101442.50;;;2.27;86.71
4528;BME280;62320;51.520;6.818;2023-04-26T05:32:23;101442.69;;;2.51;86.47
4528;BME280;62320;51.520;6.818;2023-04-26T05:42:25;101452.38;;;2.78;86.47
4528;BME280;62320;51.520;6.818;2023-04-26T05:52:26;101457.00;;;4.15;87.61
4528;BME280;62320;51.520;6.818;2023-04-26T06:02:28;101457.19;;;5.18;85.94
4528;BME280;62320;51.520;6.818;2023-04-26T06:12:30;101460.13;;;5.30;84.86
4528;BME280;62320;51.520;6.818;2023-04-26T06:22:31;101470.63;;;5.64;86.51
4528;BME280;62320;51.520;6.818;2023-04-26T06:32:33;101475.56;;;5.85;82.93
4528;BME280;62320;51.520;6.818;2023-04-26T06:42:34;101479.06;;;6.44;85.07
4528;BME280;62320;51.520;6.818;2023-04-26T06:52:36;101480.72;;;7.06;87.08
4528;BME280;62320;51.520;6.818;2023-04-26T07:02:38;101466.50;;;7.20;84.38
4528;BME280;62320;51.520;6.818;2023-04-26T07:12:40;101472.41;;;7.52;82.08
4528;BME280;62320;51.520;6.818;2023-04-26T07:22:45;101467.25;;;7.88;81.74
4528;BME280;62320;51.520;6.818;2023-04-26T07:32:47;101466.63;;;8.38;81.05
4528;BME280;62320;51.520;6.818;2023-04-26T07:42:49;101468.84;;;8.63;78.17
4528;BME280;62320;51.520;6.818;2023-04-26T07:52:50;101471.91;;;8.89;76.70
4528;BME280;62320;51.520;6.818;2023-04-26T08:02:52;101469.81;;;9.18;76.00
4528;BME280;62320;51.520;6.818;2023-04-26T08:12:54;101470.69;;;9.18;74.75
4528;BME280;62320;51.520;6.818;2023-04-26T08:22:58;101474.31;;;9.29;74.99
4528;BME280;62320;51.520;6.818;2023-04-26T08:32:59;101471.06;;;9.40;73.69
4528;BME280;62320;51.520;6.818;2023-04-26T08:43:01;101475.84;;;9.71;72.99
4528;BME280;62320;51.520;6.818;2023-04-26T08:53:03;101478.94;;;10.07;68.77
4528;BME280;62320;51.520;6.818;2023-04-26T09:03:06;101483.44;;;10.20;66.82
4528;BME280;62320;51.520;6.818;2023-04-26T09:13:07;101474.09;;;10.28;68.91
4528;BME280;62320;51.520;6.818;2023-04-26T09:23:09;101477.31;;;10.14;68.03
4528;BME280;62320;51.520;6.818;2023-04-26T09:33:10;101483.16;;;10.02;68.15
4528;BME280;62320;51.520;6.818;2023-04-26T09:43:17;101466.22;;;10.19;68.54
4528;BME280;62320;51.520;6.818;2023-04-26T10:03:28;101451.28;;;10.69;60.66
4528;BME280;62320;51.520;6.818;2023-04-26T10:13:30;101457.16;;;10.53;60.90
4528;BME280;62320;51.520;6.818;2023-04-26T10:23:33;101455.50;;;10.59;57.63
4528;BME280;62320;51.520;6.818;2023-04-26T10:33:35;101443.63;;;10.78;60.95
4528;BME280;62320;51.520;6.818;2023-04-26T10:43:37;101442.97;;;11.02;62.18
4528;BME280;62320;51.520;6.818;2023-04-26T11:14:00;101428.63;;;11.41;61.72
4528;BME280;62320;51.520;6.818;2023-04-26T11:24:02;101432.91;;;11.36;58.49
4528;BME280;62320;51.520;6.818;2023-04-26T11:34:04;101423.28;;;11.19;60.67
4528;BME280;62320;51.520;6.818;2023-04-26T11:44:05;101416.44;;;11.24;61.58
4528;BME280;62320;51.520;6.818;2023-04-26T11:54:07;101427.56;;;11.15;55.75
4528;BME280;62320;51.520;6.818;2023-04-26T12:04:08;101423.44;;;11.37;60.10
4528;BME280;62320;51.520;6.818;2023-04-26T12:14:14;101416.63;;;11.54;55.38
4528;BME280;62320;51.520;6.818;2023-04-26T12:24:27;101419.28;;;11.60;51.89
4528;BME280;62320;51.520;6.818;2023-04-26T12:34:34;101408.84;;;11.53;55.06
4528;BME280;62320;51.520;6.818;2023-04-26T12:44:36;101410.56;;;11.51;58.72
4528;BME280;62320;51.520;6.818;2023-04-26T12:54:37;101412.47;;;11.73;53.42
4528;BME280;62320;51.520;6.818;2023-04-26T13:04:39;101415.81;;;11.61;51.39
4528;BME280;62320;51.520;6.818;2023-04-26T13:14:42;101419.28;;;11.63;54.05
4528;BME280;62320;51.520;6.818;2023-04-26T13:24:43;101415.84;;;11.63;54.75
4528;BME280;62320;51.520;6.818;2023-04-26T13:34:45;101409.09;;;11.90;54.01
4528;BME280;62320;51.520;6.818;2023-04-26T13:44:46;101404.72;;;11.82;51.51
4528;BME280;62320;51.520;6.818;2023-04-26T13:54:48;101417.63;;;11.71;55.93
4528;BME280;62320;51.520;6.818;2023-04-26T14:04:49;101415.03;;;11.68;53.20
4528;BME280;62320;51.520;6.818;2023-04-26T14:14:52;101414.31;;;11.98;54.62
4528;BME280;62320;51.520;6.818;2023-04-26T14:24:53;101417.75;;;11.92;52.98
4528;BME280;62320;51.520;6.818;2023-04-26T14:34:55;101421.16;;;11.84;52.74
4528;BME280;62320;51.520;6.818;2023-04-26T14:44:57;101390.06;;;11.84;54.59
4528;BME280;62320;51.520;6.818;2023-04-26T14:54:59;101383.25;;;12.05;56.27
4528;BME280;62320;51.520;6.818;2023-04-26T15:05:00;101384.16;;;12.23;54.37
4528;BME280;62320;51.520;6.818;2023-04-26T15:15:05;101395.44;;;12.26;53.44
4528;BME280;62320;51.520;6.818;2023-04-26T15:25:07;101385.91;;;12.19;56.63
4528;BME280;62320;51.520;6.818;2023-04-26T15:35:11;101379.81;;;12.14;55.58
4528;BME280;62320;51.520;6.818;2023-04-26T15:45:13;101385.81;;;12.04;49.68
4528;BME280;62320;51.520;6.818;2023-04-26T15:55:14;101382.31;;;11.90;50.83
4528;BME280;62320;51.520;6.818;2023-04-26T16:05:16;101388.28;;;11.71;48.89
4528;BME280;62320;51.520;6.818;2023-04-26T16:15:18;101388.28;;;11.69;54.60
4528;BME280;62320;51.520;6.818;2023-04-26T16:25:20;101388.19;;;11.60;51.78
4528;BME280;62320;51.520;6.818;2023-04-26T16:35:22;101382.09;;;11.55;53.22
4528;BME280;62320;51.520;6.818;2023-04-26T16:45:24;101381.22;;;11.48;55.20
4528;BME280;62320;51.520;6.818;2023-04-26T16:55:26;101376.81;;;11.37;50.57
4528;BME280;62320;51.520;6.818;2023-04-26T17:05:27;101387.97;;;11.31;53.87
4528;BME280;62320;51.520;6.818;2023-04-26T17:15:29;101395.72;;;11.24;55.26
4528;BME280;62320;51.520;6.818;2023-04-26T17:25:33;101382.78;;;11.24;55.12
4528;BME280;62320;51.520;6.818;2023-04-26T17:35:35;101386.97;;;11.10;52.79
4528;BME280;62320;51.520;6.818;2023-04-26T17:45:36;101387.63;;;10.86;54.73
4528;BME280;62320;51.520;6.818;2023-04-26T17:55:38;101393.63;;;10.81;55.66
4528;BME280;62320;51.520;6.818;2023-04-26T18:05:39;101402.88;;;10.57;54.53
4528;BME280;62320;51.520;6.818;2023-04-26T18:15:41;101414.84;;;10.46;56.50
4528;BME280;62320;51.520;6.818;2023-04-26T18:25:42;101420.78;;;10.38;57.02
4528;BME280;62320;51.520;6.818;2023-04-26T18:35:47;101423.78;;;10.03;58.03
4528;BME280;62320;51.520;6.818;2023-04-26T18:45:48;101417.72;;;10.01;59.47
4528;BME280;62320;51.520;6.818;2023-04-26T18:55:51;101424.19;;;9.72;59.51
4528;BME280;62320;51.520;6.818;2023-04-26T19:05:55;101425.94;;;9.73;59.93
4528;BME280;62320;51.520;6.818;2023-04-26T19:15:57;101436.03;;;9.57;60.82
4528;BME280;62320;51.520;6.818;2023-04-26T19:26:06;101448.59;;;9.34;60.59
4528;BME280;62320;51.520;6.818;2023-04-26T19:36:08;101447.81;;;9.40;61.47
4528;BME280;62320;51.520;6.818;2023-04-26T19:46:11;101456.59;;;9.51;61.90
4528;BME280;62320;51.520;6.818;2023-04-26T19:56:13;101465.69;;;9.27;62.24
4528;BME280;62320;51.520;6.818;2023-04-26T20:06:14;101472.22;;;9.06;62.88
4528;BME280;62320;51.520;6.818;2023-04-26T20:16:16;101489.28;;;8.99;63.31
4528;BME280;62320;51.520;6.818;2023-04-26T20:26:18;101489.81;;;8.82;63.79
4528;BME280;62320;51.520;6.818;2023-04-26T20:36:19;101484.78;;;8.88;63.75
4528;BME280;62320;51.520;6.818;2023-04-26T20:46:21;101488.09;;;8.81;63.75
4528;BME280;62320;51.520;6.818;2023-04-26T20:56:23;101480.09;;;8.67;65.24
4528;BME280;62320;51.520;6.818;2023-04-26T21:06:24;101485.44;;;8.33;66.46
4528;BME280;62320;51.520;6.818;2023-04-26T21:16:27;101483.31;;;8.17;66.97
4528;BME280;62320;51.520;6.818;2023-04-26T21:26:29;101488.66;;;8.24;67.15
4528;BME280;62320;51.520;6.818;2023-04-26T21:36:30;101492.47;;;8.04;67.93
4528;BME280;62320;51.520;6.818;2023-04-26T21:46:32;101494.25;;;8.05;68.14
4528;BME280;62320;51.520;6.818;2023-04-26T21:56:34;101502.59;;;7.95;67.14
4528;BME280;62320;51.520;6.818;2023-04-26T22:06:36;101493.53;;;7.75;69.30
4528;BME280;62320;51.520;6.818;2023-04-26T22:16:37;101500.69;;;7.49;72.23
4528;BME280;62320;51.520;6.818;2023-04-26T22:26:39;101514.25;;;7.44;70.60
4528;BME280;62320;51.520;6.818;2023-04-26T22:36:41;101505.88;;;7.18;73.10
4528;BME280;62320;51.520;6.818;2023-04-26T22:46:43;101510.28;;;6.91;74.52
4528;BME280;62320;51.520;6.818;2023-04-26T22:56:44;101514.75;;;6.65;75.19
4528;BME280;62320;51.520;6.818;2023-04-26T23:06:45;101525.59;;;6.55;74.98
4528;BME280;62320;51.520;6.818;2023-04-26T23:16:47;101526.81;;;6.38;74.63
4528;BME280;62320;51.520;6.818;2023-04-26T23:26:49;101523.06;;;6.27;74.83
4528;BME280;62320;51.520;6.818;2023-04-26T23:36:50;101527.56;;;5.79;79.82
4528;BME280;62320;51.520;6.818;2023-04-26T23:46:52;101535.59;;;5.63;81.44
4528;BME280;62320;51.520;6.818;2023-04-26T23:56:54;101536.00;;;5.50;80.35
